Time;durP1;ratioP1;P1;durP2;ratioP2;P2;SDS_P1;SDS_P2;PMS_P1;PMS_P2;Temp;Humidity;BMP_temperature;BMP_pressure;BME280_temperature;BME280_humidity;BME280_pressure;Samples;Min_cycle;Max_cycle;Signal;HPM_P1;HPM_P2
2023/11/21 00:01:52;;;;;;;;;;;9.60;90.20;;;;;;5053728;28;20355;-71
2023/11/21 00:04:39;;;;;;;;;;;9.60;90.10;;;;;;5074638;28;19935;-61
2023/11/21 00:07:13;;;;;;;;;;;9.60;90.20;;;;;;5037390;28;20009;-58
2023/11/21 00:09:47;;;;;;;;;;;9.60;90.20;;;;;;5072674;28;19928;-61
2023/11/21 00:12:22;;;;;;;;;;;9.50;90.10;;;;;;5077647;28;19979;-62
2023/11/21 00:14:57;;;;;;;;;;;9.60;90.20;;;;;;5053670;28;20337;-63
2023/11/21 00:17:33;;;;;;;;;;;9.60;90.10;;;;;;5065878;28;19955;-60
2023/11/21 00:20:12;;;;;;;;;;;9.50;90.10;;;;;;5073526;28;19925;-61
2023/11/21 00:22:46;;;;;;;;;;;9.60;90.10;;;;;;5074834;28;20015;-60
2023/11/21 00:25:22;;;;;;;;;;;9.50;90.10;;;;;;5074588;28;20015;-61
2023/11/21 00:31:13;;;;;;;;;;;9.50;90.20;;;;;;5073372;28;19996;-61
2023/11/21 00:33:50;;;;;;;;;;;9.50;90.20;;;;;;5060392;28;20034;-59
2023/11/21 00:36:23;;;;;;;;;;;9.60;90.10;;;;;;5070384;28;20375;-60
2023/11/21 00:38:59;;;;;;;;;;;9.60;90.20;;;;;;5053670;28;20316;-61
2023/11/21 00:41:37;;;;;;;;;;;9.60;90.30;;;;;;5057568;28;19936;-61
2023/11/21 00:44:11;;;;;;;;;;;9.60;90.30;;;;;;5069339;28;19928;-60
2023/11/21 00:46:45;;;;;;;;;;;9.60;90.30;;;;;;5054118;28;19951;-61
2023/11/21 00:49:19;;;;;;;;;;;9.60;90.30;;;;;;5070221;28;19925;-61
2023/11/21 00:51:52;;;;;;;;;;;9.60;90.20;;;;;;5071155;28;19932;-61
2023/11/21 00:54:27;;;;;;;;;;;9.70;90.10;;;;;;5053592;28;19924;-61
2023/11/21 00:57:00;;;;;;;;;;;9.70;90.10;;;;;;5071294;28;20416;-61
2023/11/21 00:59:37;;;;;;;;;;;9.70;90.10;;;;;;5069432;28;20011;-61
2023/11/21 01:02:12;;;;;;;;;;;9.70;90.20;;;;;;5071211;28;19951;-60
2023/11/21 01:04:45;;;;;;;;;;;9.60;90.30;;;;;;5052148;28;19931;-62
2023/11/21 01:07:20;;;;;;;;;;;9.70;90.10;;;;;;5070369;28;19982;-60
2023/11/21 01:09:53;;;;;;;;;;;9.70;90.30;;;;;;5069755;28;19928;-60
2023/11/21 01:12:27;;;;;;;;;;;9.70;90.40;;;;;;5071118;28;19980;-61
2023/11/21 01:15:01;;;;;;;;;;;9.70;90.30;;;;;;5067065;28;20015;-62
2023/11/21 01:17:36;;;;;;;;;;;9.70;90.10;;;;;;5068325;28;19932;-62
2023/11/21 01:20:12;;;;;;;;;;;9.70;90.30;;;;;;5067123;28;19928;-63
2023/11/21 01:22:54;;;;;;;;;;;9.70;90.30;;;;;;5069255;28;19928;-61
2023/11/21 01:25:28;;;;;;;;;;;9.70;90.30;;;;;;5051127;28;20411;-63
2023/11/21 01:28:01;;;;;;;;;;;9.70;90.30;;;;;;5070004;28;19978;-62
2023/11/21 01:30:35;;;;;;;;;;;9.80;90.30;;;;;;5066803;28;19932;-63
2023/11/21 01:33:10;;;;;;;;;;;9.80;90.50;;;;;;5070423;28;19939;-62
2023/11/21 01:35:44;;;;;;;;;;;9.80;90.20;;;;;;5059746;28;20011;-63
2023/11/21 01:38:19;;;;;;;;;;;9.70;90.20;;;;;;5054598;28;19931;-62
2023/11/21 01:40:52;;;;;;;;;;;9.70;90.20;;;;;;5068693;28;19982;-62
2023/11/21 01:43:25;;;;;;;;;;;9.70;90.30;;;;;;5051619;28;19929;-63
2023/11/21 01:45:59;;;;;;;;;;;9.70;90.30;;;;;;5066671;28;19939;-63
2023/11/21 01:48:38;;;;;;;;;;;9.70;90.30;;;;;;5050258;28;20115;-63
2023/11/21 01:51:11;;;;;;;;;;;9.70;90.40;;;;;;5050894;28;20290;-63
2023/11/21 01:53:45;;;;;;;;;;;9.70;90.20;;;;;;5067263;28;19929;-64
2023/11/21 01:56:18;;;;;;;;;;;9.70;90.30;;;;;;5065997;28;20367;-62
2023/11/21 01:58:52;;;;;;;;;;;9.70;90.40;;;;;;5048734;28;20379;-63
2023/11/21 02:01:25;;;;;;;;;;;9.70;90.30;;;;;;5041978;28;20268;-62
2023/11/21 02:04:00;;;;;;;;;;;9.70;90.30;;;;;;5065736;28;19933;-63
2023/11/21 02:06:35;;;;;;;;;;;9.70;90.30;;;;;;5068030;28;20410;-63
2023/11/21 02:11:55;;;;;;;;;;;9.70;90.30;;;;;;5051632;28;20019;-64
2023/11/21 02:14:28;;;;;;;;;;;9.70;90.30;;;;;;5067287;28;19928;-63
2023/11/21 02:17:03;;;;;;;;;;;9.70;90.40;;;;;;5065562;28;19974;-63
2023/11/21 02:19:38;;;;;;;;;;;9.70;90.40;;;;;;5066554;28;20440;-62
2023/11/21 02:22:08;;;;;;;;;;;9.60;90.40;;;;;;5060707;28;19932;-62
2023/11/21 02:24:48;;;;;;;;;;;9.70;90.50;;;;;;5064863;28;19959;-65
2023/11/21 02:27:23;;;;;;;;;;;9.60;90.50;;;;;;5052082;28;19982;-66
2023/11/21 02:29:56;;;;;;;;;;;9.60;90.50;;;;;;5067327;28;19932;-65
2023/11/21 02:32:31;;;;;;;;;;;9.60;90.50;;;;;;5068294;28;19928;-66
2023/11/21 02:35:08;;;;;;;;;;;9.60;90.50;;;;;;5055217;28;20427;-65
2023/11/21 02:37:42;;;;;;;;;;;9.60;90.50;;;;;;5069990;28;19932;-65
2023/11/21 02:40:17;;;;;;;;;;;9.60;90.50;;;;;;5071839;28;20275;-65
2023/11/21 02:42:58;;;;;;;;;;;9.60;90.60;;;;;;5070099;28;19935;-65
2023/11/21 02:45:32;;;;;;;;;;;9.60;90.50;;;;;;5055390;28;20363;-65
2023/11/21 02:48:06;;;;;;;;;;;9.60;90.50;;;;;;5071274;28;19924;-66
2023/11/21 02:50:39;;;;;;;;;;;9.60;90.50;;;;;;5070578;28;20307;-66
2023/11/21 02:53:14;;;;;;;;;;;9.60;90.50;;;;;;5068345;28;19928;-66
2023/11/21 02:55:49;;;;;;;;;;;9.60;90.50;;;;;;5071163;28;20015;-66
2023/11/21 02:58:22;;;;;;;;;;;9.60;90.60;;;;;;5073164;28;19928;-66
2023/11/21 03:00:56;;;;;;;;;;;9.50;90.60;;;;;;5068843;28;20011;-66
2023/11/21 03:03:29;;;;;;;;;;;9.60;90.60;;;;;;5069467;28;19928;-66
2023/11/21 03:06:02;;;;;;;;;;;9.60;90.60;;;;;;5072361;28;19968;-66
2023/11/21 03:08:38;;;;;;;;;;;9.60;90.60;;;;;;5051829;28;20007;-66
2023/11/21 03:11:13;;;;;;;;;;;9.60;90.50;;;;;;5071628;28;19968;-66
2023/11/21 03:13:46;;;;;;;;;;;9.60;90.40;;;;;;5072518;28;19928;-66
2023/11/21 03:16:20;;;;;;;;;;;9.60;90.60;;;;;;5071049;28;19931;-65
2023/11/21 03:18:53;;;;;;;;;;;9.60;90.50;;;;;;5070269;28;20023;-65
2023/11/21 03:21:27;;;;;;;;;;;9.70;90.50;;;;;;5070737;28;19928;-64
2023/11/21 03:24:02;;;;;;;;;;;9.60;90.40;;;;;;5072086;28;19929;-65
2023/11/21 03:26:38;;;;;;;;;;;9.60;90.50;;;;;;5072862;28;19928;-64
2023/11/21 03:29:10;;;;;;;;;;;9.60;90.50;;;;;;5069858;28;19939;-66
2023/11/21 03:31:37;;;;;;;;;;;9.60;90.40;;;;;;5070451;28;19928;-65
2023/11/21 03:34:12;;;;;;;;;;;9.60;90.50;;;;;;5070220;28;19951;-71
2023/11/21 03:36:46;;;;;;;;;;;9.60;90.60;;;;;;5050394;28;19928;-71
2023/11/21 03:39:20;;;;;;;;;;;9.60;90.60;;;;;;5053821;28;19993;-72
2023/11/21 03:41:58;;;;;;;;;;;9.60;90.70;;;;;;5055094;28;20379;-70
2023/11/21 03:44:31;;;;;;;;;;;9.60;90.60;;;;;;5069613;28;19924;-72
2023/11/21 03:47:05;;;;;;;;;;;9.70;90.50;;;;;;5068688;28;19925;-72
2023/11/21 03:49:39;;;;;;;;;;;9.70;90.50;;;;;;5062335;28;19933;-73
2023/11/21 03:52:16;;;;;;;;;;;9.70;90.50;;;;;;5072118;28;19951;-72
2023/11/21 03:55:14;;;;;;;;;;;9.60;90.60;;;;;;5072731;28;20019;-73
2023/11/21 03:58:02;;;;;;;;;;;9.60;90.60;;;;;;5061366;28;19984;-70
2023/11/21 04:00:37;;;;;;;;;;;9.60;90.60;;;;;;5068610;28;19928;-73
2023/11/21 04:03:10;;;;;;;;;;;9.60;90.70;;;;;;5076979;28;20037;-72
2023/11/21 04:05:47;;;;;;;;;;;9.60;90.70;;;;;;5072213;28;20405;-72
2023/11/21 04:08:21;;;;;;;;;;;9.60;90.70;;;;;;5074571;28;19928;-72
2023/11/21 04:10:55;;;;;;;;;;;9.60;90.60;;;;;;5068014;28;19993;-72
2023/11/21 04:13:28;;;;;;;;;;;9.60;90.60;;;;;;5069936;28;20302;-72
2023/11/21 04:16:06;;;;;;;;;;;9.60;90.60;;;;;;5068473;28;19931;-73
2023/11/21 04:18:40;;;;;;;;;;;9.60;90.60;;;;;;5064889;28;20259;-70
2023/11/21 04:21:07;;;;;;;;;;;9.60;90.60;;;;;;5071027;28;20466;-72
2023/11/21 04:23:43;;;;;;;;;;;9.60;90.60;;;;;;5064379;28;24035;-71
2023/11/21 04:26:10;;;;;;;;;;;9.60;90.60;;;;;;5069767;28;19941;-72
2023/11/21 04:28:44;;;;;;;;;;;9.60;90.60;;;;;;5069560;28;20294;-72
2023/11/21 04:31:19;;;;;;;;;;;9.60;90.50;;;;;;5051452;28;20402;-73
2023/11/21 04:33:53;;;;;;;;;;;9.60;90.50;;;;;;5070054;28;19925;-73
2023/11/21 04:36:20;;;;;;;;;;;9.60;90.60;;;;;;5070252;28;20444;-72
2023/11/21 04:38:53;;;;;;;;;;;9.60;90.70;;;;;;5058746;28;19924;-72
2023/11/21 04:41:26;;;;;;;;;;;9.50;90.70;;;;;;5072331;28;19931;-73
2023/11/21 04:44:02;;;;;;;;;;;9.50;90.80;;;;;;5069721;28;21089;-62
2023/11/21 04:46:37;;;;;;;;;;;9.50;90.80;;;;;;5070246;28;20448;-63
2023/11/21 04:49:10;;;;;;;;;;;9.50;90.80;;;;;;5071419;28;19931;-62
2023/11/21 04:51:44;;;;;;;;;;;9.50;90.80;;;;;;5070327;28;19925;-64
2023/11/21 04:54:16;;;;;;;;;;;9.50;90.70;;;;;;5070722;28;19925;-63
2023/11/21 04:56:50;;;;;;;;;;;9.60;90.70;;;;;;5063537;28;19924;-63
2023/11/21 04:59:26;;;;;;;;;;;9.60;90.70;;;;;;5068586;28;19925;-62
2023/11/21 05:02:01;;;;;;;;;;;9.50;90.60;;;;;;5070013;28;19933;-63
2023/11/21 05:04:34;;;;;;;;;;;9.60;90.60;;;;;;5070866;28;19928;-63
2023/11/21 05:07:07;;;;;;;;;;;9.50;90.70;;;;;;5070667;28;19929;-62
2023/11/21 05:09:43;;;;;;;;;;;9.50;90.70;;;;;;5070908;28;20383;-62
2023/11/21 05:12:16;;;;;;;;;;;9.50;90.60;;;;;;5070608;28;20175;-66
2023/11/21 05:14:49;;;;;;;;;;;9.50;90.60;;;;;;5070592;28;19928;-63
2023/11/21 05:17:24;;;;;;;;;;;9.50;90.50;;;;;;5071894;28;20399;-62
2023/11/21 05:19:57;;;;;;;;;;;9.50;90.50;;;;;;5070690;28;19963;-66
2023/11/21 05:22:30;;;;;;;;;;;9.50;90.50;;;;;;5071472;28;19929;-63
2023/11/21 05:25:04;;;;;;;;;;;9.40;90.50;;;;;;5069397;28;19993;-63
2023/11/21 05:27:38;;;;;;;;;;;9.50;90.50;;;;;;5071067;28;19924;-63
2023/11/21 05:30:12;;;;;;;;;;;9.40;90.50;;;;;;5070517;28;19924;-62
2023/11/21 05:32:42;;;;;;;;;;;9.50;90.40;;;;;;5052601;28;19925;-67
2023/11/21 05:35:21;;;;;;;;;;;9.50;90.40;;;;;;5070007;28;19924;-62
2023/11/21 05:37:55;;;;;;;;;;;9.50;90.40;;;;;;5070346;28;19924;-62
2023/11/21 05:40:30;;;;;;;;;;;9.40;90.50;;;;;;5070347;28;20394;-63
2023/11/21 05:43:02;;;;;;;;;;;9.40;90.40;;;;;;5052135;28;19924;-62
2023/11/21 05:45:38;;;;;;;;;;;9.40;90.50;;;;;;5067889;28;20383;-64
2023/11/21 05:48:13;;;;;;;;;;;9.40;90.50;;;;;;5069389;28;19982;-62
2023/11/21 05:50:47;;;;;;;;;;;9.40;90.40;;;;;;5067126;28;19925;-62
2023/11/21 05:53:21;;;;;;;;;;;9.40;90.40;;;;;;5070852;28;19991;-72
2023/11/21 05:55:55;;;;;;;;;;;9.40;90.50;;;;;;5070668;28;19928;-71
2023/11/21 05:58:28;;;;;;;;;;;9.30;90.50;;;;;;5069533;28;20032;-73
2023/11/21 06:01:01;;;;;;;;;;;9.30;90.50;;;;;;5064303;28;20335;-72
2023/11/21 06:03:35;;;;;;;;;;;9.30;90.50;;;;;;5070977;28;19928;-72
2023/11/21 06:06:09;;;;;;;;;;;9.30;90.50;;;;;;5070983;28;20379;-72
2023/11/21 06:08:43;;;;;;;;;;;9.30;90.50;;;;;;5073832;28;20887;-71
2023/11/21 06:11:16;;;;;;;;;;;9.40;90.50;;;;;;5074586;28;19954;-73
2023/11/21 06:13:50;;;;;;;;;;;9.40;90.50;;;;;;5074328;28;20413;-73
2023/11/21 06:16:22;;;;;;;;;;;9.30;90.60;;;;;;5074100;28;19990;-72
2023/11/21 06:18:53;;;;;;;;;;;9.40;90.50;;;;;;5074489;28;19948;-72
2023/11/21 06:21:30;;;;;;;;;;;9.30;90.50;;;;;;5074386;28;19931;-71
2023/11/21 06:24:03;;;;;;;;;;;9.30;90.60;;;;;;5055291;28;20345;-73
2023/11/21 06:26:39;;;;;;;;;;;9.40;90.60;;;;;;5075216;28;20023;-74
2023/11/21 06:29:12;;;;;;;;;;;9.40;90.60;;;;;;5075745;28;19925;-70
2023/11/21 06:31:46;;;;;;;;;;;9.40;90.60;;;;;;5059774;28;19924;-72
2023/11/21 06:34:21;;;;;;;;;;;9.40;90.70;;;;;;5072427;28;19936;-72
2023/11/21 06:36:55;;;;;;;;;;;9.40;90.70;;;;;;5075076;28;20047;-72
2023/11/21 06:39:28;;;;;;;;;;;9.40;90.60;;;;;;5072770;28;19929;-72
2023/11/21 06:42:01;;;;;;;;;;;9.40;90.60;;;;;;5073765;28;19932;-72
2023/11/21 06:44:35;;;;;;;;;;;9.40;90.60;;;;;;5075035;28;19974;-73
2023/11/21 06:47:12;;;;;;;;;;;9.40;90.60;;;;;;5074492;28;20326;-72
2023/11/21 06:49:48;;;;;;;;;;;9.40;90.60;;;;;;5074397;28;19935;-72
2023/11/21 06:52:25;;;;;;;;;;;9.40;90.60;;;;;;5074407;28;19932;-72
2023/11/21 06:54:59;;;;;;;;;;;9.40;90.60;;;;;;5077022;28;19971;-72
2023/11/21 06:57:26;;;;;;;;;;;9.40;90.50;;;;;;5074603;28;19925;-73
2023/11/21 07:00:00;;;;;;;;;;;9.40;90.50;;;;;;5069466;28;19933;-74
2023/11/21 07:02:36;;;;;;;;;;;9.40;90.40;;;;;;5071760;28;20011;-64
2023/11/21 07:05:11;;;;;;;;;;;9.40;90.40;;;;;;5072774;28;19924;-60
2023/11/21 07:07:48;;;;;;;;;;;9.30;90.50;;;;;;5072974;28;19932;-61
2023/11/21 07:10:22;;;;;;;;;;;9.40;90.40;;;;;;5072107;28;20377;-61
2023/11/21 07:12:55;;;;;;;;;;;9.30;90.40;;;;;;5071941;28;19979;-60
2023/11/21 07:15:28;;;;;;;;;;;9.30;90.30;;;;;;5074891;28;20014;-60
2023/11/21 07:18:02;;;;;;;;;;;9.30;90.30;;;;;;5052839;28;20381;-61
2023/11/21 07:20:36;;;;;;;;;;;9.40;90.30;;;;;;5072408;28;19928;-59
2023/11/21 07:23:10;;;;;;;;;;;9.40;90.20;;;;;;5073098;28;19925;-59
2023/11/21 07:25:44;;;;;;;;;;;9.40;90.10;;;;;;5072014;28;19934;-59
2023/11/21 07:28:17;;;;;;;;;;;9.30;90.20;;;;;;5073666;28;19956;-60
2023/11/21 07:30:51;;;;;;;;;;;9.30;90.20;;;;;;5072234;28;20391;-60
2023/11/21 07:33:23;;;;;;;;;;;9.40;90.20;;;;;;5072845;28;19951;-59
2023/11/21 07:36:13;;;;;;;;;;;9.40;90.20;;;;;;5072096;28;19932;-60
2023/11/21 07:38:46;;;;;;;;;;;9.30;90.20;;;;;;5071454;28;19933;-61
2023/11/21 07:41:20;;;;;;;;;;;9.40;90.20;;;;;;5071136;28;20026;-61
2023/11/21 07:43:55;;;;;;;;;;;9.40;90.10;;;;;;5067471;28;20017;-59
2023/11/21 07:46:29;;;;;;;;;;;9.40;90.10;;;;;;5074053;28;20103;-61
2023/11/21 07:49:04;;;;;;;;;;;9.40;90.10;;;;;;5071997;28;19946;-60
2023/11/21 07:51:38;;;;;;;;;;;9.40;90.20;;;;;;5072432;28;19940;-60
2023/11/21 07:54:12;;;;;;;;;;;9.40;90.10;;;;;;5070289;28;19925;-60
2023/11/21 07:56:46;;;;;;;;;;;9.40;90.10;;;;;;5072333;28;19924;-60
2023/11/21 07:59:19;;;;;;;;;;;9.50;90.00;;;;;;5071389;28;19925;-61
2023/11/21 08:01:52;;;;;;;;;;;9.50;90.10;;;;;;5067643;28;19967;-60
2023/11/21 08:04:25;;;;;;;;;;;9.50;90.10;;;;;;5072275;28;19924;-60
2023/11/21 08:06:59;;;;;;;;;;;9.50;90.10;;;;;;5071549;28;19932;-61
2023/11/21 08:09:34;;;;;;;;;;;9.50;90.00;;;;;;5070371;28;19925;-61
2023/11/21 08:12:10;;;;;;;;;;;9.60;90.00;;;;;;5069125;28;20021;-60
2023/11/21 08:14:44;;;;;;;;;;;9.50;90.00;;;;;;5068945;28;19928;-61
2023/11/21 08:17:20;;;;;;;;;;;9.60;90.00;;;;;;5072221;28;19925;-60
2023/11/21 08:19:53;;;;;;;;;;;9.60;89.80;;;;;;5070534;28;19955;-60
2023/11/21 08:22:27;;;;;;;;;;;9.60;89.80;;;;;;5070283;28;19967;-60
2023/11/21 08:25:08;;;;;;;;;;;9.70;89.80;;;;;;5070430;28;19924;-59
2023/11/21 08:27:41;;;;;;;;;;;9.70;89.60;;;;;;5069954;28;19968;-61
2023/11/21 08:30:16;;;;;;;;;;;9.70;89.60;;;;;;5071602;28;20050;-60
2023/11/21 08:32:51;;;;;;;;;;;9.80;89.60;;;;;;5070725;28;19935;-60
2023/11/21 08:35:24;;;;;;;;;;;9.70;89.60;;;;;;5071657;28;19928;-61
2023/11/21 08:37:58;;;;;;;;;;;9.80;89.60;;;;;;5051520;28;20333;-60
2023/11/21 08:40:48;;;;;;;;;;;9.70;89.50;;;;;;5071751;28;20213;-60
2023/11/21 08:43:28;;;;;;;;;;;9.80;89.50;;;;;;5068538;28;19935;-61
2023/11/21 08:46:03;;;;;;;;;;;9.80;89.50;;;;;;5070987;28;20005;-60
2023/11/21 08:48:36;;;;;;;;;;;9.80;89.40;;;;;;5050535;28;19933;-62
2023/11/21 08:51:11;;;;;;;;;;;9.80;89.50;;;;;;5067972;28;19925;-59
2023/11/21 08:53:47;;;;;;;;;;;9.70;89.60;;;;;;5072305;28;20359;-61
2023/11/21 08:56:21;;;;;;;;;;;9.70;89.70;;;;;;5060681;28;19924;-61
2023/11/21 08:58:54;;;;;;;;;;;9.70;89.70;;;;;;5069901;28;19924;-61
2023/11/21 09:01:27;;;;;;;;;;;9.70;89.60;;;;;;5070542;28;19994;-62
2023/11/21 09:04:00;;;;;;;;;;;9.80;89.50;;;;;;5070223;28;19978;-59
2023/11/21 09:06:33;;;;;;;;;;;9.70;89.40;;;;;;5070213;28;20425;-60
2023/11/21 09:09:08;;;;;;;;;;;9.70;89.40;;;;;;5069496;28;19932;-61
2023/11/21 09:11:44;;;;;;;;;;;9.70;89.40;;;;;;5069751;28;19940;-60
2023/11/21 09:14:17;;;;;;;;;;;9.70;89.20;;;;;;5062260;28;19930;-60
2023/11/21 09:16:51;;;;;;;;;;;9.70;89.20;;;;;;5058727;28;19928;-63
2023/11/21 09:19:28;;;;;;;;;;;9.70;89.20;;;;;;5044588;28;19932;-60
2023/11/21 09:22:01;;;;;;;;;;;9.70;89.20;;;;;;5068895;28;19932;-61
2023/11/21 09:24:35;;;;;;;;;;;9.70;89.30;;;;;;5070207;28;20023;-74
2023/11/21 09:27:09;;;;;;;;;;;9.60;89.30;;;;;;5068974;28;20015;-74
2023/11/21 09:29:43;;;;;;;;;;;9.70;89.10;;;;;;5068025;28;19952;-73
2023/11/21 09:32:18;;;;;;;;;;;9.70;89.00;;;;;;5067012;28;20017;-73
2023/11/21 09:34:52;;;;;;;;;;;9.80;89.10;;;;;;5067367;28;19928;-73
2023/11/21 09:37:27;;;;;;;;;;;9.90;89.00;;;;;;5068823;28;20015;-72
2023/11/21 09:40:02;;;;;;;;;;;9.90;88.80;;;;;;5068774;28;20031;-72
2023/11/21 09:42:37;;;;;;;;;;;10.10;89.00;;;;;;5068953;28;19928;-74
2023/11/21 09:45:15;;;;;;;;;;;10.10;88.90;;;;;;5051488;28;20387;-73
2023/11/21 09:47:49;;;;;;;;;;;10.10;88.80;;;;;;5068296;28;19936;-74
2023/11/21 09:50:22;;;;;;;;;;;10.10;88.70;;;;;;5068490;28;19928;-72
2023/11/21 09:52:58;;;;;;;;;;;10.10;88.80;;;;;;5070649;28;20432;-72
2023/11/21 09:55:35;;;;;;;;;;;10.20;88.60;;;;;;5070584;28;20011;-72
2023/11/21 09:58:11;;;;;;;;;;;10.30;88.40;;;;;;5070973;28;20040;-72
2023/11/21 10:00:46;;;;;;;;;;;10.40;88.30;;;;;;5069947;28;19968;-72
2023/11/21 10:03:20;;;;;;;;;;;10.40;88.30;;;;;;5067703;28;20007;-73
2023/11/21 10:05:54;;;;;;;;;;;10.40;88.20;;;;;;5067509;28;19928;-74
2023/11/21 10:08:28;;;;;;;;;;;10.40;88.20;;;;;;5070702;28;19978;-74
2023/11/21 10:11:06;;;;;;;;;;;10.30;88.40;;;;;;5070008;28;19931;-73
2023/11/21 10:13:41;;;;;;;;;;;10.20;88.30;;;;;;5069281;28;20387;-73
2023/11/21 10:16:16;;;;;;;;;;;10.10;88.20;;;;;;5069541;28;19928;-73
2023/11/21 10:18:50;;;;;;;;;;;10.10;88.20;;;;;;5071506;28;19974;-71
2023/11/21 10:21:23;;;;;;;;;;;10.00;88.20;;;;;;5068616;28;19974;-72
2023/11/21 10:23:57;;;;;;;;;;;10.00;88.30;;;;;;5068971;28;19935;-73
2023/11/21 10:26:33;;;;;;;;;;;10.10;88.20;;;;;;5070600;28;19931;-74
2023/11/21 10:29:06;;;;;;;;;;;10.20;88.10;;;;;;5069786;28;19929;-73
2023/11/21 10:31:39;;;;;;;;;;;10.20;88.00;;;;;;5068212;28;20425;-72
2023/11/21 10:34:13;;;;;;;;;;;10.30;87.60;;;;;;5069897;28;19928;-63
2023/11/21 10:36:47;;;;;;;;;;;10.40;87.40;;;;;;5069143;28;20441;-63
2023/11/21 10:39:17;;;;;;;;;;;10.50;87.30;;;;;;5069180;28;19926;-62
2023/11/21 10:42:00;;;;;;;;;;;10.60;87.10;;;;;;5069097;28;19985;-62
2023/11/21 10:44:35;;;;;;;;;;;10.60;86.80;;;;;;5066801;28;19928;-63
2023/11/21 10:47:11;;;;;;;;;;;10.80;86.50;;;;;;5067428;28;19970;-62
2023/11/21 10:49:47;;;;;;;;;;;10.90;86.20;;;;;;5067440;28;19932;-62
2023/11/21 10:52:21;;;;;;;;;;;11.00;86.10;;;;;;5071059;28;19932;-62
2023/11/21 10:54:54;;;;;;;;;;;11.10;85.70;;;;;;5071802;28;19929;-63
2023/11/21 10:57:28;;;;;;;;;;;11.20;85.70;;;;;;5070825;28;19932;-62
2023/11/21 10:59:55;;;;;;;;;;;11.30;85.50;;;;;;5069999;28;19924;-62
2023/11/21 11:02:32;;;;;;;;;;;11.40;85.20;;;;;;5054594;28;19930;-62
2023/11/21 11:05:06;;;;;;;;;;;11.50;85.10;;;;;;5068907;28;19929;-62
2023/11/21 11:07:40;;;;;;;;;;;11.60;84.80;;;;;;5071043;28;19986;-64
2023/11/21 11:10:14;;;;;;;;;;;11.60;84.60;;;;;;5070450;28;19978;-63
2023/11/21 11:12:49;;;;;;;;;;;11.70;84.50;;;;;;5072634;28;19932;-63
2023/11/21 11:15:23;;;;;;;;;;;11.70;84.40;;;;;;5074374;28;19928;-61
2023/11/21 11:17:57;;;;;;;;;;;11.80;83.70;;;;;;5072253;28;20031;-60
2023/11/21 11:20:33;;;;;;;;;;;11.80;83.70;;;;;;5069592;28;19939;-62
2023/11/21 11:23:14;;;;;;;;;;;11.80;84.00;;;;;;5071554;28;19935;-63
2023/11/21 11:25:54;;;;;;;;;;;11.70;83.70;;;;;;5071535;28;20041;-63
2023/11/21 11:28:33;;;;;;;;;;;11.70;83.40;;;;;;5074641;28;19967;-63
2023/11/21 11:31:16;;;;;;;;;;;11.60;83.70;;;;;;5052379;28;20386;-64
2023/11/21 11:33:54;;;;;;;;;;;11.60;83.40;;;;;;5072405;28;19929;-62
2023/11/21 11:36:35;;;;;;;;;;;11.60;83.50;;;;;;5071881;28;19929;-63
2023/11/21 11:39:24;;;;;;;;;;;11.50;83.60;;;;;;5073556;28;19928;-61
2023/11/21 11:41:58;;;;;;;;;;;11.50;83.60;;;;;;5074148;28;19974;-61
2023/11/21 11:44:51;;;;;;;;;;;11.40;83.20;;;;;;5071582;28;19933;-63
2023/11/21 11:47:27;;;;;;;;;;;11.40;83.10;;;;;;5067704;28;20276;-64
2023/11/21 11:50:13;;;;;;;;;;;11.30;82.90;;;;;;5070483;28;19932;-62
2023/11/21 11:52:54;;;;;;;;;;;11.30;82.30;;;;;;5071452;28;19935;-63
2023/11/21 11:55:30;;;;;;;;;;;11.30;82.20;;;;;;5072908;28;19973;-61
2023/11/21 11:58:06;;;;;;;;;;;11.30;82.30;;;;;;5071339;28;19929;-63
2023/11/21 12:00:43;;;;;;;;;;;11.30;82.40;;;;;;5069662;28;19936;-64
2023/11/21 12:03:17;;;;;;;;;;;11.20;82.10;;;;;;5072062;28;19968;-63
2023/11/21 12:05:52;;;;;;;;;;;11.20;82.20;;;;;;5071368;28;19928;-63
2023/11/21 12:08:31;;;;;;;;;;;11.30;82.30;;;;;;5071971;28;20030;-62
2023/11/21 12:11:05;;;;;;;;;;;11.30;82.10;;;;;;5069682;28;20379;-63
2023/11/21 12:13:38;;;;;;;;;;;11.30;81.80;;;;;;5070886;28;20397;-62
2023/11/21 12:16:25;;;;;;;;;;;11.30;82.00;;;;;;5071970;28;19930;-63
2023/11/21 12:18:59;;;;;;;;;;;11.30;82.00;;;;;;5068418;28;19939;-63
2023/11/21 12:21:32;;;;;;;;;;;11.30;81.40;;;;;;5067257;28;20391;-63
2023/11/21 12:24:08;;;;;;;;;;;11.30;81.80;;;;;;5068608;28;19925;-62
2023/11/21 12:26:43;;;;;;;;;;;11.30;81.80;;;;;;5069693;28;19928;-64
2023/11/21 12:29:17;;;;;;;;;;;11.30;81.90;;;;;;5064976;28;19925;-63
2023/11/21 12:31:52;;;;;;;;;;;11.30;82.00;;;;;;5064950;28;19935;-63
2023/11/21 12:34:26;;;;;;;;;;;11.30;81.90;;;;;;5066667;28;19978;-63
2023/11/21 12:37:00;;;;;;;;;;;11.30;82.10;;;;;;5070696;28;19960;-62
2023/11/21 12:39:33;;;;;;;;;;;11.20;81.80;;;;;;5071637;28;19928;-62
2023/11/21 12:42:06;;;;;;;;;;;11.20;81.60;;;;;;5071772;28;19932;-63
2023/11/21 12:44:41;;;;;;;;;;;11.20;81.30;;;;;;5074155;28;19970;-62
2023/11/21 12:47:21;;;;;;;;;;;11.20;81.60;;;;;;5072550;28;19924;-62
2023/11/21 12:49:54;;;;;;;;;;;11.20;81.30;;;;;;5072903;28;19977;-62
2023/11/21 12:52:30;;;;;;;;;;;11.20;81.30;;;;;;5074513;28;19926;-63
2023/11/21 12:55:04;;;;;;;;;;;11.20;81.20;;;;;;5073806;28;19929;-73
2023/11/21 12:57:45;;;;;;;;;;;11.20;81.20;;;;;;5071116;28;20019;-74
2023/11/21 13:00:27;;;;;;;;;;;11.10;80.90;;;;;;5067962;28;19936;-74
2023/11/21 13:03:01;;;;;;;;;;;11.10;81.60;;;;;;5070734;28;19924;-73
2023/11/21 13:05:38;;;;;;;;;;;11.20;81.30;;;;;;5070132;28;19964;-73
2023/11/21 13:08:12;;;;;;;;;;;11.20;81.20;;;;;;5072335;28;19928;-73
2023/11/21 13:10:47;;;;;;;;;;;11.20;80.90;;;;;;5069539;28;19924;-71
2023/11/21 13:13:24;;;;;;;;;;;11.20;81.30;;;;;;5074553;28;19930;-73
2023/11/21 13:16:04;;;;;;;;;;;11.20;81.30;;;;;;5073343;28;19925;-74
2023/11/21 13:18:40;;;;;;;;;;;11.10;81.30;;;;;;5055936;28;19925;-74
2023/11/21 13:21:13;;;;;;;;;;;11.10;81.40;;;;;;5075216;28;19955;-74
2023/11/21 13:23:54;;;;;;;;;;;11.10;81.30;;;;;;5079075;28;20011;-72
2023/11/21 13:26:27;;;;;;;;;;;11.10;81.50;;;;;;5079010;28;19925;-75
2023/11/21 13:29:00;;;;;;;;;;;11.10;81.70;;;;;;5077860;28;19928;-75
2023/11/21 13:31:36;;;;;;;;;;;11.10;81.60;;;;;;5074067;28;19928;-73
2023/11/21 13:34:14;;;;;;;;;;;11.10;81.90;;;;;;5071287;28;19933;-72
2023/11/21 13:36:47;;;;;;;;;;;11.10;82.00;;;;;;5071108;28;19929;-72
2023/11/21 13:39:21;;;;;;;;;;;11.00;81.70;;;;;;5071720;28;19932;-72
2023/11/21 13:41:54;;;;;;;;;;;11.00;81.90;;;;;;5072526;28;19931;-73
2023/11/21 13:44:34;;;;;;;;;;;11.00;81.80;;;;;;5073058;28;19924;-72
2023/11/21 13:47:08;;;;;;;;;;;11.00;81.80;;;;;;5071990;28;19935;-70
2023/11/21 13:49:42;;;;;;;;;;;10.90;81.90;;;;;;5070396;28;19954;-71
2023/11/21 13:52:18;;;;;;;;;;;10.90;82.00;;;;;;5051604;28;19932;-72
2023/11/21 13:54:51;;;;;;;;;;;10.90;81.90;;;;;;5070394;28;19925;-72
2023/11/21 13:57:24;;;;;;;;;;;10.90;82.20;;;;;;5070600;28;19924;-72
2023/11/21 14:00:01;;;;;;;;;;;10.80;82.50;;;;;;5061147;28;19928;-74
2023/11/21 14:02:39;;;;;;;;;;;10.90;82.50;;;;;;5070095;28;19924;-71
2023/11/21 14:05:14;;;;;;;;;;;10.80;82.40;;;;;;5071331;28;20391;-64
2023/11/21 14:07:47;;;;;;;;;;;10.80;82.50;;;;;;5066216;28;19958;-65
2023/11/21 14:10:36;;;;;;;;;;;10.80;82.90;;;;;;5071644;28;19924;-65
2023/11/21 14:13:11;;;;;;;;;;;10.80;83.30;;;;;;5070897;28;19940;-64
2023/11/21 14:15:45;;;;;;;;;;;10.80;83.60;;;;;;5068694;28;19939;-64
2023/11/21 14:18:27;;;;;;;;;;;10.70;83.40;;;;;;5071852;28;20009;-65
2023/11/21 14:21:01;;;;;;;;;;;10.70;83.50;;;;;;5051194;28;19928;-64
2023/11/21 14:23:36;;;;;;;;;;;10.70;83.70;;;;;;5069633;28;19933;-65
2023/11/21 14:26:11;;;;;;;;;;;10.70;84.00;;;;;;5069528;28;19935;-65
2023/11/21 14:28:45;;;;;;;;;;;10.70;84.20;;;;;;5055192;28;20361;-65
2023/11/21 14:31:19;;;;;;;;;;;10.60;84.30;;;;;;5073840;28;19924;-64
2023/11/21 14:33:52;;;;;;;;;;;10.60;84.60;;;;;;5073944;28;20021;-66
2023/11/21 14:36:26;;;;;;;;;;;10.60;84.80;;;;;;5074116;28;20011;-65
2023/11/21 14:39:00;;;;;;;;;;;10.60;85.00;;;;;;5073768;28;19929;-65
2023/11/21 14:41:35;;;;;;;;;;;10.60;85.10;;;;;;5073823;28;20015;-64
2023/11/21 14:44:11;;;;;;;;;;;10.60;85.40;;;;;;5064088;28;19932;-65
2023/11/21 14:46:46;;;;;;;;;;;10.60;85.50;;;;;;5072266;28;19989;-66
2023/11/21 14:49:19;;;;;;;;;;;10.60;85.80;;;;;;5073976;28;19936;-64
2023/11/21 14:52:00;;;;;;;;;;;10.60;86.00;;;;;;5074194;28;19928;-65
2023/11/21 14:54:45;;;;;;;;;;;10.50;86.10;;;;;;5073434;28;19955;-64
2023/11/21 14:57:22;;;;;;;;;;;10.50;86.10;;;;;;5050416;28;19947;-64
2023/11/21 14:59:57;;;;;;;;;;;10.50;86.10;;;;;;5073239;28;19950;-65
2023/11/21 15:02:48;;;;;;;;;;;10.50;86.10;;;;;;5052453;28;20014;-65
2023/11/21 15:05:24;;;;;;;;;;;10.50;86.10;;;;;;5073302;28;20379;-65
2023/11/21 15:08:08;;;;;;;;;;;10.50;86.20;;;;;;5073140;28;20325;-65
2023/11/21 15:10:46;;;;;;;;;;;10.40;86.30;;;;;;5072973;28;20423;-64
2023/11/21 15:13:19;;;;;;;;;;;10.40;86.40;;;;;;5074167;28;19930;-72
2023/11/21 15:15:53;;;;;;;;;;;10.40;86.50;;;;;;5072703;28;20693;-72
2023/11/21 15:18:27;;;;;;;;;;;10.40;86.60;;;;;;5075271;28;19925;-73